sensor_id;sensor_type;location;lat;lon;timestamp;P1;durP1;ratioP1;P2;durP2;ratioP2
26774;SDS011;14362;51.902;7.626;2023-06-14T00:02:32;4.80;;;2.92;;
26774;SDS011;14362;51.902;7.626;2023-06-14T00:06:34;4.88;;;2.88;;
26774;SDS011;14362;51.902;7.626;2023-06-14T00:10:37;3.53;;;2.42;;
26774;SDS011;14362;51.902;7.626;2023-06-14T00:14:41;5.28;;;2.83;;
26774;SDS011;14362;51.902;7.626;2023-06-14T00:18:42;3.03;;;2.60;;
26774;SDS011;14362;51.902;7.626;2023-06-14T00:22:43;8.13;;;3.85;;
26774;SDS011;14362;51.902;7.626;2023-06-14T00:26:46;3.13;;;2.70;;
26774;SDS011;14362;51.902;7.626;2023-06-14T00:30:48;3.95;;;3.03;;
26774;SDS011;14362;51.902;7.626;2023-06-14T00:34:49;5.70;;;2.78;;
26774;SDS011;14362;51.902;7.626;2023-06-14T00:38:51;4.53;;;2.90;;
26774;SDS011;14362;51.902;7.626;2023-06-14T00:42:53;3.92;;;2.97;;
26774;SDS011;14362;51.902;7.626;2023-06-14T00:46:55;8.32;;;3.00;;
26774;SDS011;14362;51.902;7.626;2023-06-14T00:50:56;4.05;;;2.80;;
26774;SDS011;14362;51.902;7.626;2023-06-14T00:54:58;6.25;;;2.80;;
26774;SDS011;14362;51.902;7.626;2023-06-14T00:59:01;4.20;;;2.58;;
26774;SDS011;14362;51.902;7.626;2023-06-14T01:03:03;7.18;;;2.95;;
26774;SDS011;14362;51.902;7.626;2023-06-14T01:07:07;3.28;;;2.67;;
26774;SDS011;14362;51.902;7.626;2023-06-14T01:11:16;5.13;;;2.65;;
26774;SDS011;14362;51.902;7.626;2023-06-14T01:15:24;4.50;;;2.83;;
26774;SDS011;14362;51.902;7.626;2023-06-14T01:19:26;3.60;;;2.30;;
26774;SDS011;14362;51.902;7.626;2023-06-14T01:23:29;4.47;;;2.85;;
26774;SDS011;14362;51.902;7.626;2023-06-14T01:27:32;3.63;;;2.80;;
26774;SDS011;14362;51.902;7.626;2023-06-14T01:31:34;5.25;;;2.65;;
26774;SDS011;14362;51.902;7.626;2023-06-14T01:35:42;4.97;;;2.63;;
26774;SDS011;14362;51.902;7.626;2023-06-14T01:39:46;6.20;;;3.28;;
26774;SDS011;14362;51.902;7.626;2023-06-14T01:43:49;4.75;;;2.70;;
26774;SDS011;14362;51.902;7.626;2023-06-14T01:47:53;4.65;;;2.97;;
26774;SDS011;14362;51.902;7.626;2023-06-14T01:51:54;4.07;;;2.70;;
26774;SDS011;14362;51.902;7.626;2023-06-14T01:55:57;5.22;;;2.97;;
26774;SDS011;14362;51.902;7.626;2023-06-14T01:59:59;5.72;;;3.17;;
26774;SDS011;14362;51.902;7.626;2023-06-14T02:04:00;6.72;;;2.90;;
26774;SDS011;14362;51.902;7.626;2023-06-14T02:08:01;3.17;;;2.60;;
26774;SDS011;14362;51.902;7.626;2023-06-14T02:12:05;4.00;;;2.92;;
26774;SDS011;14362;51.902;7.626;2023-06-14T02:16:07;6.43;;;3.47;;
26774;SDS011;14362;51.902;7.626;2023-06-14T02:20:10;3.95;;;2.83;;
26774;SDS011;14362;51.902;7.626;2023-06-14T02:24:12;5.10;;;2.88;;
26774;SDS011;14362;51.902;7.626;2023-06-14T02:28:15;7.60;;;2.88;;
26774;SDS011;14362;51.902;7.626;2023-06-14T02:32:16;4.03;;;2.75;;
26774;SDS011;14362;51.902;7.626;2023-06-14T02:36:18;5.70;;;3.03;;
26774;SDS011;14362;51.902;7.626;2023-06-14T02:40:20;4.30;;;2.92;;
26774;SDS011;14362;51.902;7.626;2023-06-14T02:44:25;6.13;;;2.80;;
26774;SDS011;14362;51.902;7.626;2023-06-14T02:48:27;3.38;;;2.90;;
26774;SDS011;14362;51.902;7.626;2023-06-14T02:52:29;4.03;;;2.60;;
26774;SDS011;14362;51.902;7.626;2023-06-14T02:56:30;6.22;;;3.13;;
26774;SDS011;14362;51.902;7.626;2023-06-14T03:00:33;3.67;;;3.00;;
26774;SDS011;14362;51.902;7.626;2023-06-14T03:04:35;5.38;;;2.95;;
26774;SDS011;14362;51.902;7.626;2023-06-14T03:08:38;3.05;;;2.75;;
26774;SDS011;14362;51.902;7.626;2023-06-14T03:12:39;4.57;;;2.53;;
26774;SDS011;14362;51.902;7.626;2023-06-14T03:16:42;3.70;;;2.75;;
26774;SDS011;14362;51.902;7.626;2023-06-14T03:20:44;6.55;;;3.45;;
26774;SDS011;14362;51.902;7.626;2023-06-14T03:24:45;5.68;;;3.15;;
26774;SDS011;14362;51.902;7.626;2023-06-14T03:28:47;4.63;;;3.03;;
26774;SDS011;14362;51.902;7.626;2023-06-14T03:32:51;4.22;;;2.60;;
26774;SDS011;14362;51.902;7.626;2023-06-14T03:36:52;4.45;;;2.63;;
26774;SDS011;14362;51.902;7.626;2023-06-14T03:40:54;6.70;;;2.78;;
26774;SDS011;14362;51.902;7.626;2023-06-14T03:44:55;4.25;;;2.80;;
26774;SDS011;14362;51.902;7.626;2023-06-14T03:48:58;4.75;;;3.08;;
26774;SDS011;14362;51.902;7.626;2023-06-14T03:53:00;5.88;;;3.08;;
26774;SDS011;14362;51.902;7.626;2023-06-14T03:57:02;7.13;;;3.20;;
26774;SDS011;14362;51.902;7.626;2023-06-14T04:01:03;5.10;;;3.10;;
26774;SDS011;14362;51.902;7.626;2023-06-14T04:05:08;4.72;;;2.90;;
26774;SDS011;14362;51.902;7.626;2023-06-14T04:09:10;4.65;;;3.05;;
26774;SDS011;14362;51.902;7.626;2023-06-14T04:13:11;5.30;;;3.03;;
26774;SDS011;14362;51.902;7.626;2023-06-14T04:17:13;4.20;;;2.70;;
26774;SDS011;14362;51.902;7.626;2023-06-14T04:21:16;5.28;;;3.33;;
26774;SDS011;14362;51.902;7.626;2023-06-14T04:25:17;4.55;;;3.08;;
26774;SDS011;14362;51.902;7.626;2023-06-14T04:29:19;5.32;;;2.78;;
26774;SDS011;14362;51.902;7.626;2023-06-14T04:33:21;7.72;;;3.08;;
26774;SDS011;14362;51.902;7.626;2023-06-14T04:37:24;8.20;;;3.10;;
26774;SDS011;14362;51.902;7.626;2023-06-14T04:41:28;3.75;;;2.88;;
26774;SDS011;14362;51.902;7.626;2023-06-14T04:45:30;3.25;;;2.42;;
26774;SDS011;14362;51.902;7.626;2023-06-14T04:49:32;4.88;;;2.95;;
26774;SDS011;14362;51.902;7.626;2023-06-14T04:53:35;4.18;;;2.90;;
26774;SDS011;14362;51.902;7.626;2023-06-14T04:57:37;7.13;;;2.80;;
26774;SDS011;14362;51.902;7.626;2023-06-14T05:01:38;4.85;;;2.80;;
26774;SDS011;14362;51.902;7.626;2023-06-14T05:05:40;5.07;;;2.85;;
26774;SDS011;14362;51.902;7.626;2023-06-14T05:09:43;6.97;;;3.22;;
26774;SDS011;14362;51.902;7.626;2023-06-14T05:13:45;6.63;;;2.70;;
26774;SDS011;14362;51.902;7.626;2023-06-14T05:17:47;6.38;;;2.83;;
26774;SDS011;14362;51.902;7.626;2023-06-14T05:21:53;3.78;;;2.45;;
26774;SDS011;14362;51.902;7.626;2023-06-14T05:25:55;3.40;;;2.90;;
26774;SDS011;14362;51.902;7.626;2023-06-14T05:29:57;2.60;;;2.40;;
26774;SDS011;14362;51.902;7.626;2023-06-14T05:33:59;5.55;;;2.40;;
26774;SDS011;14362;51.902;7.626;2023-06-14T05:38:00;2.70;;;2.15;;
26774;SDS011;14362;51.902;7.626;2023-06-14T05:42:03;3.83;;;2.63;;
26774;SDS011;14362;51.902;7.626;2023-06-14T05:46:06;3.17;;;2.35;;
26774;SDS011;14362;51.902;7.626;2023-06-14T05:50:07;4.97;;;2.60;;
26774;SDS011;14362;51.902;7.626;2023-06-14T05:54:10;6.00;;;2.28;;
26774;SDS011;14362;51.902;7.626;2023-06-14T05:58:12;5.57;;;2.53;;
26774;SDS011;14362;51.902;7.626;2023-06-14T06:02:14;5.20;;;2.67;;
26774;SDS011;14362;51.902;7.626;2023-06-14T06:06:16;6.57;;;2.30;;
26774;SDS011;14362;51.902;7.626;2023-06-14T06:10:17;3.13;;;2.20;;
26774;SDS011;14362;51.902;7.626;2023-06-14T06:14:20;5.68;;;2.20;;
26774;SDS011;14362;51.902;7.626;2023-06-14T06:18:21;3.30;;;2.00;;
26774;SDS011;14362;51.902;7.626;2023-06-14T06:22:23;5.25;;;2.20;;
26774;SDS011;14362;51.902;7.626;2023-06-14T06:26:24;2.72;;;2.25;;
26774;SDS011;14362;51.902;7.626;2023-06-14T06:30:28;2.53;;;2.05;;
26774;SDS011;14362;51.902;7.626;2023-06-14T06:34:29;5.40;;;2.20;;
26774;SDS011;14362;51.902;7.626;2023-06-14T06:38:30;3.50;;;1.73;;
26774;SDS011;14362;51.902;7.626;2023-06-14T06:42:32;3.58;;;2.00;;
26774;SDS011;14362;51.902;7.626;2023-06-14T06:46:34;6.88;;;1.98;;
26774;SDS011;14362;51.902;7.626;2023-06-14T06:50:39;1.92;;;1.70;;
26774;SDS011;14362;51.902;7.626;2023-06-14T06:54:41;4.45;;;2.03;;
26774;SDS011;14362;51.902;7.626;2023-06-14T06:58:42;3.72;;;2.10;;
26774;SDS011;14362;51.902;7.626;2023-06-14T07:02:45;3.55;;;1.90;;
26774;SDS011;14362;51.902;7.626;2023-06-14T07:06:47;2.60;;;1.60;;
26774;SDS011;14362;51.902;7.626;2023-06-14T07:10:48;6.65;;;1.75;;
26774;SDS011;14362;51.902;7.626;2023-06-14T07:14:49;1.77;;;1.38;;
26774;SDS011;14362;51.902;7.626;2023-06-14T07:18:52;3.45;;;1.45;;
26774;SDS011;14362;51.902;7.626;2023-06-14T07:22:53;6.30;;;1.55;;
26774;SDS011;14362;51.902;7.626;2023-06-14T07:26:55;2.15;;;1.55;;
26774;SDS011;14362;51.902;7.626;2023-06-14T07:30:56;1.60;;;1.50;;
26774;SDS011;14362;51.902;7.626;2023-06-14T07:34:59;3.72;;;1.42;;
26774;SDS011;14362;51.902;7.626;2023-06-14T07:39:00;3.72;;;1.50;;
26774;SDS011;14362;51.902;7.626;2023-06-14T07:43:03;2.20;;;1.60;;
26774;SDS011;14362;51.902;7.626;2023-06-14T07:47:05;2.83;;;1.75;;
26774;SDS011;14362;51.902;7.626;2023-06-14T07:51:08;5.63;;;2.00;;
26774;SDS011;14362;51.902;7.626;2023-06-14T07:55:09;4.13;;;1.70;;
26774;SDS011;14362;51.902;7.626;2023-06-14T07:59:10;1.85;;;1.55;;
26774;SDS011;14362;51.902;7.626;2023-06-14T08:03:12;3.22;;;1.60;;
26774;SDS011;14362;51.902;7.626;2023-06-14T08:07:15;3.65;;;1.50;;
26774;SDS011;14362;51.902;7.626;2023-06-14T08:11:16;1.65;;;1.20;;
26774;SDS011;14362;51.902;7.626;2023-06-14T08:15:18;5.22;;;1.40;;
26774;SDS011;14362;51.902;7.626;2023-06-14T08:19:20;1.73;;;1.27;;
26774;SDS011;14362;51.902;7.626;2023-06-14T08:23:23;3.08;;;1.42;;
26774;SDS011;14362;51.902;7.626;2023-06-14T08:27:24;5.35;;;1.10;;
26774;SDS011;14362;51.902;7.626;2023-06-14T08:31:26;4.88;;;1.20;;
26774;SDS011;14362;51.902;7.626;2023-06-14T08:35:28;2.90;;;1.08;;
26774;SDS011;14362;51.902;7.626;2023-06-14T08:39:31;3.10;;;1.23;;
26774;SDS011;14362;51.902;7.626;2023-06-14T08:43:32;1.50;;;1.10;;
26774;SDS011;14362;51.902;7.626;2023-06-14T08:47:34;2.95;;;1.20;;
26774;SDS011;14362;51.902;7.626;2023-06-14T08:51:38;3.70;;;0.90;;
26774;SDS011;14362;51.902;7.626;2023-06-14T08:55:42;2.47;;;1.00;;
26774;SDS011;14362;51.902;7.626;2023-06-14T08:59:45;3.08;;;0.90;;
26774;SDS011;14362;51.902;7.626;2023-06-14T09:03:52;5.22;;;1.10;;
26774;SDS011;14362;51.902;7.626;2023-06-14T09:07:54;2.90;;;0.90;;
26774;SDS011;14362;51.902;7.626;2023-06-14T09:12:02;2.92;;;0.80;;
26774;SDS011;14362;51.902;7.626;2023-06-14T09:16:04;1.88;;;0.80;;
26774;SDS011;14362;51.902;7.626;2023-06-14T09:20:06;3.22;;;1.10;;
26774;SDS011;14362;51.902;7.626;2023-06-14T09:28:15;2.17;;;1.10;;
26774;SDS011;14362;51.902;7.626;2023-06-14T09:32:17;1.10;;;1.00;;
26774;SDS011;14362;51.902;7.626;2023-06-14T09:36:21;3.38;;;1.10;;
26774;SDS011;14362;51.902;7.626;2023-06-14T09:40:23;3.63;;;1.13;;
26774;SDS011;14362;51.902;7.626;2023-06-14T09:44:26;4.28;;;1.17;;
26774;SDS011;14362;51.902;7.626;2023-06-14T09:48:30;1.77;;;1.00;;
26774;SDS011;14362;51.902;7.626;2023-06-14T09:52:31;4.22;;;1.17;;
26774;SDS011;14362;51.902;7.626;2023-06-14T09:56:35;8.25;;;1.90;;
26774;SDS011;14362;51.902;7.626;2023-06-14T10:00:40;1.63;;;0.93;;
26774;SDS011;14362;51.902;7.626;2023-06-14T10:04:45;2.60;;;1.30;;
26774;SDS011;14362;51.902;7.626;2023-06-14T10:08:47;4.93;;;1.33;;
26774;SDS011;14362;51.902;7.626;2023-06-14T10:12:50;6.80;;;1.33;;
26774;SDS011;14362;51.902;7.626;2023-06-14T10:16:54;3.15;;;1.30;;
26774;SDS011;14362;51.902;7.626;2023-06-14T10:21:04;2.67;;;1.10;;
26774;SDS011;14362;51.902;7.626;2023-06-14T10:25:25;4.03;;;1.00;;
26774;SDS011;14362;51.902;7.626;2023-06-14T10:29:27;2.20;;;1.15;;
26774;SDS011;14362;51.902;7.626;2023-06-14T10:33:33;2.42;;;1.27;;
26774;SDS011;14362;51.902;7.626;2023-06-14T10:37:35;1.30;;;1.20;;
26774;SDS011;14362;51.902;7.626;2023-06-14T10:41:37;1.90;;;1.00;;
26774;SDS011;14362;51.902;7.626;2023-06-14T10:45:51;2.75;;;1.23;;
26774;SDS011;14362;51.902;7.626;2023-06-14T10:50:14;4.80;;;1.73;;
26774;SDS011;14362;51.902;7.626;2023-06-14T10:54:20;2.22;;;1.30;;
26774;SDS011;14362;51.902;7.626;2023-06-14T10:58:22;2.05;;;1.15;;
26774;SDS011;14362;51.902;7.626;2023-06-14T11:06:49;3.72;;;1.50;;
26774;SDS011;14362;51.902;7.626;2023-06-14T11:10:54;3.47;;;1.63;;
26774;SDS011;14362;51.902;7.626;2023-06-14T11:14:59;1.60;;;1.50;;
26774;SDS011;14362;51.902;7.626;2023-06-14T11:19:01;1.25;;;1.15;;
26774;SDS011;14362;51.902;7.626;2023-06-14T11:23:05;2.42;;;1.52;;
26774;SDS011;14362;51.902;7.626;2023-06-14T11:27:07;3.63;;;1.80;;
26774;SDS011;14362;51.902;7.626;2023-06-14T11:31:09;2.42;;;1.40;;
26774;SDS011;14362;51.902;7.626;2023-06-14T11:35:10;1.92;;;1.40;;
26774;SDS011;14362;51.902;7.626;2023-06-14T11:39:13;1.50;;;1.40;;
26774;SDS011;14362;51.902;7.626;2023-06-14T11:43:15;1.40;;;1.25;;
26774;SDS011;14362;51.902;7.626;2023-06-14T11:47:17;4.95;;;1.50;;
26774;SDS011;14362;51.902;7.626;2023-06-14T11:51:18;4.32;;;1.58;;
26774;SDS011;14362;51.902;7.626;2023-06-14T11:55:22;1.63;;;1.52;;
26774;SDS011;14362;51.902;7.626;2023-06-14T11:59:24;2.13;;;1.40;;
26774;SDS011;14362;51.902;7.626;2023-06-14T12:03:25;3.35;;;1.70;;
26774;SDS011;14362;51.902;7.626;2023-06-14T12:07:28;3.95;;;1.80;;
26774;SDS011;14362;51.902;7.626;2023-06-14T12:11:33;3.83;;;1.70;;
26774;SDS011;14362;51.902;7.626;2023-06-14T12:19:43;2.05;;;1.50;;
26774;SDS011;14362;51.902;7.626;2023-06-14T12:23:45;1.90;;;1.75;;
26774;SDS011;14362;51.902;7.626;2023-06-14T12:27:49;4.07;;;1.60;;
26774;SDS011;14362;51.902;7.626;2023-06-14T12:31:50;4.25;;;1.80;;
26774;SDS011;14362;51.902;7.626;2023-06-14T12:35:54;2.80;;;1.50;;
26774;SDS011;14362;51.902;7.626;2023-06-14T12:39:56;2.30;;;1.40;;
26774;SDS011;14362;51.902;7.626;2023-06-14T12:43:59;3.53;;;1.75;;
26774;SDS011;14362;51.902;7.626;2023-06-14T12:48:04;4.10;;;1.60;;
26774;SDS011;14362;51.902;7.626;2023-06-14T12:52:06;3.22;;;1.60;;
26774;SDS011;14362;51.902;7.626;2023-06-14T12:56:08;1.70;;;1.60;;
26774;SDS011;14362;51.902;7.626;2023-06-14T13:00:12;3.65;;;1.70;;
26774;SDS011;14362;51.902;7.626;2023-06-14T13:08:15;3.33;;;1.70;;
26774;SDS011;14362;51.902;7.626;2023-06-14T13:12:16;5.30;;;1.67;;
26774;SDS011;14362;51.902;7.626;2023-06-14T13:16:19;2.50;;;1.63;;
26774;SDS011;14362;51.902;7.626;2023-06-14T13:20:21;2.38;;;1.75;;
26774;SDS011;14362;51.902;7.626;2023-06-14T13:24:22;7.13;;;2.20;;
26774;SDS011;14362;51.902;7.626;2023-06-14T13:28:23;3.28;;;1.85;;
26774;SDS011;14362;51.902;7.626;2023-06-14T13:32:26;2.75;;;1.77;;
26774;SDS011;14362;51.902;7.626;2023-06-14T13:36:28;1.92;;;1.70;;
26774;SDS011;14362;51.902;7.626;2023-06-14T13:40:30;3.38;;;1.52;;
26774;SDS011;14362;51.902;7.626;2023-06-14T13:44:31;4.55;;;1.90;;
26774;SDS011;14362;51.902;7.626;2023-06-14T13:48:36;2.63;;;1.50;;
26774;SDS011;14362;51.902;7.626;2023-06-14T13:52:37;3.17;;;1.83;;
26774;SDS011;14362;51.902;7.626;2023-06-14T13:56:39;2.83;;;1.80;;
26774;SDS011;14362;51.902;7.626;2023-06-14T14:00:40;2.17;;;1.80;;
26774;SDS011;14362;51.902;7.626;2023-06-14T14:04:43;1.77;;;1.67;;
26774;SDS011;14362;51.902;7.626;2023-06-14T14:08:45;4.00;;;1.70;;
26774;SDS011;14362;51.902;7.626;2023-06-14T14:12:46;3.40;;;1.65;;
26774;SDS011;14362;51.902;7.626;2023-06-14T14:16:47;2.05;;;1.70;;
26774;SDS011;14362;51.902;7.626;2023-06-14T14:20:50;3.80;;;1.40;;
26774;SDS011;14362;51.902;7.626;2023-06-14T14:24:52;2.10;;;1.70;;
26774;SDS011;14362;51.902;7.626;2023-06-14T14:28:53;3.58;;;1.83;;
26774;SDS011;14362;51.902;7.626;2023-06-14T14:32:54;1.80;;;1.63;;
26774;SDS011;14362;51.902;7.626;2023-06-14T14:36:57;1.77;;;1.50;;
26774;SDS011;14362;51.902;7.626;2023-06-14T14:40:59;5.93;;;2.10;;
26774;SDS011;14362;51.902;7.626;2023-06-14T14:45:00;4.07;;;1.20;;
26774;SDS011;14362;51.902;7.626;2023-06-14T14:49:01;2.53;;;1.48;;
26774;SDS011;14362;51.902;7.626;2023-06-14T14:53:04;2.13;;;1.52;;
26774;SDS011;14362;51.902;7.626;2023-06-14T14:57:06;1.67;;;1.50;;
26774;SDS011;14362;51.902;7.626;2023-06-14T15:01:08;1.73;;;1.63;;
26774;SDS011;14362;51.902;7.626;2023-06-14T15:05:09;2.58;;;1.70;;
26774;SDS011;14362;51.902;7.626;2023-06-14T15:09:12;4.13;;;1.80;;
26774;SDS011;14362;51.902;7.626;2023-06-14T15:13:14;3.15;;;1.52;;
26774;SDS011;14362;51.902;7.626;2023-06-14T15:17:16;1.67;;;1.40;;
26774;SDS011;14362;51.902;7.626;2023-06-14T15:21:18;2.50;;;1.50;;
26774;SDS011;14362;51.902;7.626;2023-06-14T15:25:21;6.18;;;1.70;;
26774;SDS011;14362;51.902;7.626;2023-06-14T15:29:24;1.50;;;1.40;;
26774;SDS011;14362;51.902;7.626;2023-06-14T15:33:26;1.77;;;1.63;;
26774;SDS011;14362;51.902;7.626;2023-06-14T15:37:27;1.75;;;1.65;;
26774;SDS011;14362;51.902;7.626;2023-06-14T15:41:30;1.95;;;1.60;;
26774;SDS011;14362;51.902;7.626;2023-06-14T15:45:32;1.85;;;1.55;;
26774;SDS011;14362;51.902;7.626;2023-06-14T15:49:33;2.05;;;1.70;;
26774;SDS011;14362;51.902;7.626;2023-06-14T15:53:35;2.47;;;1.60;;
26774;SDS011;14362;51.902;7.626;2023-06-14T15:57:38;3.85;;;1.70;;
26774;SDS011;14362;51.902;7.626;2023-06-14T16:01:40;2.03;;;1.40;;
26774;SDS011;14362;51.902;7.626;2023-06-14T16:05:41;2.70;;;1.45;;
26774;SDS011;14362;51.902;7.626;2023-06-14T16:09:42;2.05;;;1.30;;
26774;SDS011;14362;51.902;7.626;2023-06-14T16:13:45;1.70;;;1.30;;
26774;SDS011;14362;51.902;7.626;2023-06-14T16:17:47;1.92;;;1.48;;
26774;SDS011;14362;51.902;7.626;2023-06-14T16:21:48;2.10;;;1.30;;
26774;SDS011;14362;51.902;7.626;2023-06-14T16:25:50;1.55;;;1.30;;
26774;SDS011;14362;51.902;7.626;2023-06-14T16:29:53;1.50;;;1.40;;
26774;SDS011;14362;51.902;7.626;2023-06-14T16:33:54;3.15;;;1.40;;
26774;SDS011;14362;51.902;7.626;2023-06-14T16:37:56;1.58;;;1.30;;
26774;SDS011;14362;51.902;7.626;2023-06-14T16:41:57;1.50;;;1.40;;
26774;SDS011;14362;51.902;7.626;2023-06-14T16:46:00;3.38;;;1.50;;
26774;SDS011;14362;51.902;7.626;2023-06-14T16:50:01;3.28;;;1.52;;
26774;SDS011;14362;51.902;7.626;2023-06-14T16:54:03;2.40;;;1.23;;
26774;SDS011;14362;51.902;7.626;2023-06-14T16:58:04;1.73;;;1.30;;
26774;SDS011;14362;51.902;7.626;2023-06-14T17:02:07;8.95;;;1.88;;
26774;SDS011;14362;51.902;7.626;2023-06-14T17:06:09;1.58;;;1.20;;
26774;SDS011;14362;51.902;7.626;2023-06-14T17:10:10;1.52;;;1.42;;
26774;SDS011;14362;51.902;7.626;2023-06-14T17:14:11;1.80;;;1.63;;
26774;SDS011;14362;51.902;7.626;2023-06-14T17:18:15;5.50;;;1.60;;
26774;SDS011;14362;51.902;7.626;2023-06-14T17:22:16;2.03;;;1.80;;
26774;SDS011;14362;51.902;7.626;2023-06-14T17:26:17;3.25;;;1.58;;
26774;SDS011;14362;51.902;7.626;2023-06-14T17:30:19;1.90;;;1.63;;
26774;SDS011;14362;51.902;7.626;2023-06-14T17:34:22;3.90;;;1.92;;
26774;SDS011;14362;51.902;7.626;2023-06-14T17:38:23;1.90;;;1.52;;
26774;SDS011;14362;51.902;7.626;2023-06-14T17:42:26;1.93;;;1.80;;
26774;SDS011;14362;51.902;7.626;2023-06-14T17:46:28;7.00;;;1.75;;
26774;SDS011;14362;51.902;7.626;2023-06-14T17:50:30;3.15;;;1.48;;
26774;SDS011;14362;51.902;7.626;2023-06-14T17:54:34;1.80;;;1.55;;
26774;SDS011;14362;51.902;7.626;2023-06-14T17:58:35;2.33;;;1.70;;
26774;SDS011;14362;51.902;7.626;2023-06-14T18:02:36;1.85;;;1.75;;
26774;SDS011;14362;51.902;7.626;2023-06-14T18:06:39;5.28;;;2.20;;
26774;SDS011;14362;51.902;7.626;2023-06-14T18:10:41;2.53;;;1.80;;
26774;SDS011;14362;51.902;7.626;2023-06-14T18:14:42;2.70;;;2.15;;
26774;SDS011;14362;51.902;7.626;2023-06-14T18:18:43;3.03;;;1.90;;
26774;SDS011;14362;51.902;7.626;2023-06-14T18:22:47;4.53;;;2.20;;
26774;SDS011;14362;51.902;7.626;2023-06-14T18:26:49;3.08;;;2.30;;
26774;SDS011;14362;51.902;7.626;2023-06-14T18:30:50;3.67;;;2.38;;
26774;SDS011;14362;51.902;7.626;2023-06-14T18:34:51;1.98;;;1.77;;
26774;SDS011;14362;51.902;7.626;2023-06-14T18:38:54;2.10;;;1.90;;
26774;SDS011;14362;51.902;7.626;2023-06-14T18:42:56;3.05;;;2.10;;
26774;SDS011;14362;51.902;7.626;2023-06-14T18:46:57;3.10;;;2.10;;
26774;SDS011;14362;51.902;7.626;2023-06-14T18:50:59;4.57;;;2.30;;
26774;SDS011;14362;51.902;7.626;2023-06-14T18:55:02;3.30;;;2.33;;
26774;SDS011;14362;51.902;7.626;2023-06-14T18:59:03;2.92;;;2.20;;
26774;SDS011;14362;51.902;7.626;2023-06-14T19:03:05;3.80;;;2.22;;
26774;SDS011;14362;51.902;7.626;2023-06-14T19:07:06;5.45;;;2.50;;
26774;SDS011;14362;51.902;7.626;2023-06-14T19:11:09;3.22;;;2.45;;
26774;SDS011;14362;51.902;7.626;2023-06-14T19:15:11;3.95;;;2.53;;
26774;SDS011;14362;51.902;7.626;2023-06-14T19:19:12;3.00;;;2.70;;
26774;SDS011;14362;51.902;7.626;2023-06-14T19:23:14;2.75;;;2.50;;
26774;SDS011;14362;51.902;7.626;2023-06-14T19:27:16;3.35;;;2.38;;
26774;SDS011;14362;51.902;7.626;2023-06-14T19:31:18;2.88;;;2.47;;
26774;SDS011;14362;51.902;7.626;2023-06-14T19:35:19;2.63;;;2.20;;
26774;SDS011;14362;51.902;7.626;2023-06-14T19:39:21;3.30;;;2.30;;
26774;SDS011;14362;51.902;7.626;2023-06-14T19:43:24;2.50;;;2.30;;
26774;SDS011;14362;51.902;7.626;2023-06-14T19:47:25;4.20;;;2.50;;
26774;SDS011;14362;51.902;7.626;2023-06-14T19:51:27;5.35;;;2.40;;
26774;SDS011;14362;51.902;7.626;2023-06-14T19:55:29;4.80;;;2.10;;
26774;SDS011;14362;51.902;7.626;2023-06-14T19:59:32;3.67;;;2.40;;
26774;SDS011;14362;51.902;7.626;2023-06-14T20:03:34;6.70;;;3.00;;
26774;SDS011;14362;51.902;7.626;2023-06-14T20:07:35;5.32;;;2.33;;
26774;SDS011;14362;51.902;7.626;2023-06-14T20:11:37;5.95;;;3.00;;
26774;SDS011;14362;51.902;7.626;2023-06-14T20:15:40;3.47;;;2.55;;
26774;SDS011;14362;51.902;7.626;2023-06-14T20:19:41;6.25;;;2.90;;
26774;SDS011;14362;51.902;7.626;2023-06-14T20:23:43;4.05;;;2.80;;
26774;SDS011;14362;51.902;7.626;2023-06-14T20:27:44;3.58;;;2.85;;
26774;SDS011;14362;51.902;7.626;2023-06-14T20:31:47;3.97;;;3.03;;
26774;SDS011;14362;51.902;7.626;2023-06-14T20:35:49;5.55;;;2.70;;
26774;SDS011;14362;51.902;7.626;2023-06-14T20:43:57;7.15;;;2.70;;
26774;SDS011;14362;51.902;7.626;2023-06-14T20:48:02;4.75;;;2.55;;
26774;SDS011;14362;51.902;7.626;2023-06-14T20:52:04;2.92;;;2.60;;
26774;SDS011;14362;51.902;7.626;2023-06-14T20:56:06;3.03;;;2.55;;
26774;SDS011;14362;51.902;7.626;2023-06-14T21:00:10;3.83;;;3.00;;
26774;SDS011;14362;51.902;7.626;2023-06-14T21:04:14;4.47;;;3.08;;
26774;SDS011;14362;51.902;7.626;2023-06-14T21:08:16;6.32;;;3.17;;
26774;SDS011;14362;51.902;7.626;2023-06-14T21:12:17;4.97;;;3.17;;
26774;SDS011;14362;51.902;7.626;2023-06-14T21:16:19;6.10;;;3.40;;
26774;SDS011;14362;51.902;7.626;2023-06-14T21:20:22;5.82;;;3.45;;
26774;SDS011;14362;51.902;7.626;2023-06-14T21:24:24;7.20;;;3.30;;
26774;SDS011;14362;51.902;7.626;2023-06-14T21:28:25;5.85;;;3.13;;
26774;SDS011;14362;51.902;7.626;2023-06-14T21:32:27;5.05;;;3.30;;
26774;SDS011;14362;51.902;7.626;2023-06-14T21:36:29;4.43;;;3.15;;
26774;SDS011;14362;51.902;7.626;2023-06-14T21:40:32;6.67;;;3.77;;
26774;SDS011;14362;51.902;7.626;2023-06-14T21:44:35;4.40;;;3.20;;
26774;SDS011;14362;51.902;7.626;2023-06-14T21:48:40;5.93;;;3.20;;
26774;SDS011;14362;51.902;7.626;2023-06-14T21:52:43;6.18;;;3.83;;
26774;SDS011;14362;51.902;7.626;2023-06-14T21:56:44;7.78;;;3.50;;
26774;SDS011;14362;51.902;7.626;2023-06-14T22:00:46;4.40;;;3.33;;
26774;SDS011;14362;51.902;7.626;2023-06-14T22:04:47;4.72;;;3.03;;
26774;SDS011;14362;51.902;7.626;2023-06-14T22:08:50;3.35;;;3.05;;
26774;SDS011;14362;51.902;7.626;2023-06-14T22:12:52;4.63;;;3.47;;
26774;SDS011;14362;51.902;7.626;2023-06-14T22:16:54;5.43;;;3.42;;
26774;SDS011;14362;51.902;7.626;2023-06-14T22:20:58;3.85;;;3.22;;
26774;SDS011;14362;51.902;7.626;2023-06-14T22:25:02;8.25;;;3.17;;
26774;SDS011;14362;51.902;7.626;2023-06-14T22:29:04;4.70;;;3.17;;
26774;SDS011;14362;51.902;7.626;2023-06-14T22:33:06;4.10;;;3.40;;
26774;SDS011;14362;51.902;7.626;2023-06-14T22:37:07;4.60;;;3.45;;
26774;SDS011;14362;51.902;7.626;2023-06-14T22:41:10;3.78;;;3.20;;
26774;SDS011;14362;51.902;7.626;2023-06-14T22:45:12;6.03;;;3.58;;
26774;SDS011;14362;51.902;7.626;2023-06-14T22:49:16;7.23;;;3.47;;
26774;SDS011;14362;51.902;7.626;2023-06-14T22:53:18;4.32;;;3.15;;
26774;SDS011;14362;51.902;7.626;2023-06-14T22:57:20;4.03;;;3.60;;
26774;SDS011;14362;51.902;7.626;2023-06-14T23:01:23;6.03;;;3.72;;
26774;SDS011;14362;51.902;7.626;2023-06-14T23:05:27;4.03;;;3.63;;
26774;SDS011;14362;51.902;7.626;2023-06-14T23:09:30;6.65;;;4.10;;
26774;SDS011;14362;51.902;7.626;2023-06-14T23:13:32;3.83;;;3.45;;
26774;SDS011;14362;51.902;7.626;2023-06-14T23:17:34;7.95;;;3.65;;
26774;SDS011;14362;51.902;7.626;2023-06-14T23:21:39;5.15;;;3.90;;
26774;SDS011;14362;51.902;7.626;2023-06-14T23:25:41;6.80;;;3.75;;
26774;SDS011;14362;51.902;7.626;2023-06-14T23:29:44;5.82;;;3.95;;
26774;SDS011;14362;51.902;7.626;2023-06-14T23:33:45;10.43;;;3.50;;
26774;SDS011;14362;51.902;7.626;2023-06-14T23:37:48;7.53;;;3.63;;
26774;SDS011;14362;51.902;7.626;2023-06-14T23:41:50;9.23;;;4.07;;
26774;SDS011;14362;51.902;7.626;2023-06-14T23:45:53;6.35;;;3.97;;
26774;SDS011;14362;51.902;7.626;2023-06-14T23:49:56;7.82;;;4.05;;
26774;SDS011;14362;51.902;7.626;2023-06-14T23:53:57;5.30;;;4.05;;
26774;SDS011;14362;51.902;7.626;2023-06-14T23:57:59;6.07;;;4.10;;
